createdAt,value
2023-02-22T00:00:43.674Z,4.75
2023-02-22T00:03:50.138Z,5.03
2023-02-22T00:06:53.140Z,4.80
2023-02-22T00:09:57.119Z,5.40
2023-02-22T00:12:59.809Z,4.22
2023-02-22T00:16:02.907Z,5.05
2023-02-22T00:19:06.126Z,4.38
2023-02-22T00:22:08.788Z,7.63
2023-02-22T00:25:11.532Z,5.18
2023-02-22T00:28:15.475Z,4.72
2023-02-22T00:31:19.135Z,5.00
2023-02-22T00:34:24.260Z,5.60
2023-02-22T00:37:27.175Z,5.67
2023-02-22T00:40:33.820Z,4.88
2023-02-22T00:43:37.723Z,4.78
2023-02-22T00:46:40.719Z,5.03
2023-02-22T00:49:43.426Z,5.38
2023-02-22T00:52:46.340Z,4.93
2023-02-22T00:55:49.315Z,5.57
2023-02-22T00:58:51.950Z,6.00
2023-02-22T01:01:54.759Z,4.70
2023-02-22T01:04:57.636Z,6.18
2023-02-22T01:08:02.924Z,4.77
2023-02-22T01:11:06.090Z,4.78
2023-02-22T01:14:09.810Z,4.55
2023-02-22T01:17:12.522Z,4.97
2023-02-22T01:20:17.981Z,6.13
2023-02-22T01:23:21.584Z,3.73
2023-02-22T01:26:24.273Z,4.28
2023-02-22T01:29:28.244Z,5.57
2023-02-22T01:32:30.803Z,5.65
2023-02-22T01:35:36.627Z,5.93
2023-02-22T01:38:39.803Z,5.37
2023-02-22T01:41:42.429Z,5.43
2023-02-22T01:44:45.230Z,5.43
2023-02-22T01:47:48.038Z,4.00
2023-02-22T01:51:12.683Z,5.05
2023-02-22T01:54:38.663Z,5.20
2023-02-22T01:57:41.462Z,3.90
2023-02-22T02:00:44.892Z,5.80
2023-02-22T02:03:49.275Z,4.72
2023-02-22T02:06:58.321Z,4.40
2023-02-22T02:10:04.585Z,5.90
2023-02-22T02:13:08.270Z,4.93
2023-02-22T02:16:11.052Z,4.53
2023-02-22T02:19:36.549Z,4.38
2023-02-22T02:23:02.265Z,3.97
2023-02-22T02:26:42.454Z,5.63
2023-02-22T02:30:03.040Z,4.72
2023-02-22T02:33:33.909Z,4.10
2023-02-22T02:36:47.922Z,5.28
2023-02-22T02:39:59.727Z,5.35
2023-02-22T02:43:02.347Z,5.33
2023-02-22T02:46:11.782Z,4.40
2023-02-22T02:49:22.526Z,4.30
2023-02-22T02:52:29.391Z,4.82
2023-02-22T02:55:36.474Z,5.43
2023-02-22T02:58:50.937Z,5.30
2023-02-22T03:02:20.297Z,5.25
2023-02-22T03:05:52.735Z,4.72
2023-02-22T03:08:56.652Z,5.75
2023-02-22T03:12:12.570Z,4.63
2023-02-22T03:15:17.814Z,5.43
2023-02-22T03:18:36.012Z,6.55
2023-02-22T03:21:55.641Z,5.30
2023-02-22T03:25:20.112Z,4.68
2023-02-22T03:28:26.790Z,5.25
2023-02-22T03:31:37.412Z,4.63
2023-02-22T03:34:50.780Z,4.60
2023-02-22T03:37:59.097Z,5.35
2023-02-22T03:41:03.045Z,5.30
2023-02-22T03:44:14.633Z,4.75
2023-02-22T03:47:23.761Z,4.70
2023-02-22T03:50:35.718Z,5.32
2023-02-22T03:53:39.934Z,6.30
2023-02-22T03:56:50.411Z,5.97
2023-02-22T03:59:57.158Z,5.40
2023-02-22T04:03:00.667Z,4.70
2023-02-22T04:06:03.881Z,5.60
2023-02-22T04:09:08.706Z,4.53
2023-02-22T04:12:11.482Z,5.05
2023-02-22T04:15:28.721Z,5.20
2023-02-22T04:18:39.072Z,5.70
2023-02-22T04:21:42.679Z,5.28
2023-02-22T04:24:52.388Z,5.22
2023-02-22T04:27:56.302Z,5.47
2023-02-22T04:31:09.970Z,5.88
2023-02-22T04:34:13.791Z,5.03
2023-02-22T04:37:17.914Z,4.80
2023-02-22T04:40:21.274Z,6.25
2023-02-22T04:43:25.565Z,5.68
2023-02-22T04:46:33.054Z,6.13
2023-02-22T04:49:38.990Z,5.17
2023-02-22T04:52:42.892Z,5.65
2023-02-22T04:55:47.152Z,5.95
2023-02-22T04:58:50.258Z,5.93
2023-02-22T05:01:53.070Z,6.03
2023-02-22T05:04:55.723Z,5.23
2023-02-22T05:07:58.431Z,6.50
2023-02-22T05:11:01.358Z,5.30
2023-02-22T05:14:04.017Z,6.10
2023-02-22T05:17:06.808Z,5.47
2023-02-22T05:20:19.781Z,5.30
2023-02-22T05:23:22.444Z,5.30
2023-02-22T05:26:25.190Z,6.45
2023-02-22T05:29:27.948Z,5.22
2023-02-22T05:32:30.721Z,5.65
2023-02-22T05:35:33.456Z,5.13
2023-02-22T05:38:43.332Z,6.68
2023-02-22T05:41:46.030Z,6.05
2023-02-22T05:44:48.610Z,6.05
2023-02-22T05:47:51.586Z,5.20
2023-02-22T05:50:54.427Z,5.97
2023-02-22T05:53:57.107Z,5.43
2023-02-22T05:56:59.798Z,6.82
2023-02-22T06:00:05.858Z,5.55
2023-02-22T06:03:16.763Z,5.60
2023-02-22T06:06:22.229Z,5.80
2023-02-22T06:09:25.224Z,5.65
2023-02-22T06:12:27.958Z,6.40
2023-02-22T06:15:30.980Z,5.15
2023-02-22T06:18:34.301Z,5.75
2023-02-22T06:21:37.482Z,8.10
2023-02-22T06:24:40.257Z,5.47
2023-02-22T06:27:43.133Z,6.32
2023-02-22T06:30:47.508Z,5.45
2023-02-22T06:33:50.351Z,5.55
2023-02-22T06:36:53.653Z,7.00
2023-02-22T06:39:59.172Z,7.22
2023-02-22T06:43:03.927Z,6.05
2023-02-22T06:46:11.239Z,5.90
2023-02-22T06:49:14.426Z,7.47
2023-02-22T06:52:17.812Z,4.93
2023-02-22T06:55:23.635Z,8.77
2023-02-22T06:58:27.268Z,6.30
2023-02-22T07:01:30.635Z,7.20
2023-02-22T07:04:36.725Z,8.02
2023-02-22T07:07:40.519Z,6.00
2023-02-22T07:10:43.329Z,6.63
2023-02-22T07:13:46.301Z,7.20
2023-02-22T07:16:49.216Z,6.30
2023-02-22T07:19:51.975Z,8.90
2023-02-22T07:22:54.898Z,6.70
2023-02-22T07:26:01.345Z,7.75
2023-02-22T07:29:03.959Z,7.88
2023-02-22T07:32:09.469Z,8.45
2023-02-22T07:35:25.214Z,6.63
2023-02-22T07:38:28.838Z,6.57
2023-02-22T07:41:31.620Z,6.20
2023-02-22T07:44:34.534Z,7.30
2023-02-22T07:47:37.312Z,7.30
2023-02-22T07:56:49.213Z,7.27
2023-02-22T08:00:00.664Z,8.82
2023-02-22T08:03:06.068Z,8.60
2023-02-22T08:06:09.056Z,7.38
2023-02-22T08:09:12.023Z,8.93
2023-02-22T08:12:17.104Z,8.50
2023-02-22T08:15:32.797Z,9.25
2023-02-22T08:18:38.304Z,8.55
2023-02-22T08:21:41.135Z,6.38
2023-02-22T08:24:45.090Z,7.25
2023-02-22T08:27:48.456Z,10.03
2023-02-22T08:30:52.216Z,8.45
2023-02-22T08:33:55.682Z,6.65
2023-02-22T08:36:58.581Z,7.20
2023-02-22T08:40:02.378Z,10.30
2023-02-22T08:43:08.934Z,7.07
2023-02-22T08:46:12.011Z,7.03
2023-02-22T08:49:15.453Z,6.53
2023-02-22T08:52:18.417Z,11.43
2023-02-22T08:55:23.411Z,7.57
2023-02-22T08:58:26.694Z,10.23
2023-02-22T09:01:33.451Z,8.55
2023-02-22T09:04:40.280Z,7.28
2023-02-22T09:07:46.901Z,8.70
2023-02-22T09:10:51.388Z,9.82
2023-02-22T09:13:54.479Z,12.03
2023-02-22T09:16:57.847Z,11.05
2023-02-22T09:20:03.252Z,8.77
2023-02-22T09:23:07.248Z,7.40
2023-02-22T09:26:10.500Z,13.43
2023-02-22T09:29:15.762Z,9.97
2023-02-22T09:32:18.989Z,7.20
2023-02-22T09:35:27.238Z,8.50
2023-02-22T09:38:33.170Z,10.73
2023-02-22T09:41:46.350Z,9.90
2023-02-22T09:45:18.737Z,11.70
2023-02-22T09:48:26.200Z,8.73
2023-02-22T09:51:57.060Z,10.80
2023-02-22T09:55:13.033Z,10.75
2023-02-22T09:58:43.711Z,9.75
2023-02-22T10:01:55.288Z,10.63
2023-02-22T10:05:14.441Z,13.27
2023-02-22T10:08:21.027Z,8.43
2023-02-22T10:12:03.572Z,10.30
2023-02-22T10:15:43.318Z,11.38
2023-02-22T10:19:18.054Z,12.20
2023-02-22T10:22:27.265Z,10.18
2023-02-22T10:25:36.737Z,7.72
2023-02-22T10:28:47.529Z,8.35
2023-02-22T10:31:58.967Z,10.68
2023-02-22T10:35:05.660Z,11.00
2023-02-22T10:38:30.684Z,9.18
2023-02-22T10:41:37.193Z,11.02
2023-02-22T10:44:41.257Z,10.32
2023-02-22T10:47:46.897Z,8.63
2023-02-22T10:50:50.663Z,9.13
2023-02-22T10:54:40.400Z,11.32
2023-02-22T10:57:47.970Z,9.93
2023-02-22T11:00:52.438Z,11.38
2023-02-22T11:04:18.387Z,10.85
2023-02-22T11:07:30.668Z,16.37
2023-02-22T11:10:38.987Z,10.95
2023-02-22T11:13:55.387Z,13.23
2023-02-22T11:16:59.567Z,13.50
2023-02-22T11:20:02.730Z,11.77
2023-02-22T11:23:08.451Z,11.30
2023-02-22T11:26:17.699Z,13.00
2023-02-22T11:29:35.893Z,13.23
2023-02-22T11:32:49.422Z,9.35
2023-02-22T11:36:02.293Z,13.73
2023-02-22T11:39:11.723Z,10.50
2023-02-22T11:42:24.352Z,9.52
2023-02-22T11:45:28.039Z,10.07
2023-02-22T11:48:34.891Z,8.93
2023-02-22T11:51:37.536Z,10.00
2023-02-22T11:54:58.957Z,15.63
2023-02-22T11:58:26.723Z,10.45
2023-02-22T12:01:44.316Z,11.23
2023-02-22T12:04:56.267Z,22.73
2023-02-22T12:08:19.615Z,10.50
2023-02-22T12:11:40.249Z,14.33
2023-02-22T12:15:38.820Z,11.07
2023-02-22T12:19:20.546Z,13.77
2023-02-22T12:22:35.570Z,11.57
2023-02-22T12:25:44.787Z,15.10
2023-02-22T12:29:00.021Z,11.97
2023-02-22T12:32:41.928Z,9.48
2023-02-22T12:35:54.654Z,14.15
2023-02-22T12:39:07.539Z,10.90
2023-02-22T12:50:18.188Z,11.82
2023-02-22T12:53:35.341Z,9.63
2023-02-22T12:56:43.912Z,9.05
2023-02-22T12:59:52.055Z,9.17
2023-02-22T13:03:06.334Z,13.63
2023-02-22T13:06:24.896Z,9.10
2023-02-22T13:09:56.485Z,10.27
2023-02-22T13:13:17.407Z,11.38
2023-02-22T13:16:35.096Z,11.93
2023-02-22T13:20:06.394Z,8.25
2023-02-22T13:23:19.349Z,14.75
2023-02-22T13:26:28.187Z,21.52
2023-02-22T13:29:41.745Z,15.57
2023-02-22T13:33:17.417Z,13.73
2023-02-22T13:36:33.582Z,12.07
2023-02-22T13:40:00.062Z,16.83
2023-02-22T13:43:02.991Z,13.27
2023-02-22T13:46:36.324Z,12.73
2023-02-22T13:50:00.027Z,14.10
2023-02-22T13:53:10.193Z,11.95
2023-02-22T13:56:14.589Z,12.65
2023-02-22T13:59:26.329Z,10.65
2023-02-22T14:02:54.154Z,10.02
2023-02-22T14:06:01.002Z,9.40
2023-02-22T14:09:09.611Z,11.85
2023-02-22T14:12:35.496Z,10.55
2023-02-22T14:15:58.174Z,10.27
2023-02-22T14:19:25.185Z,11.27
2023-02-22T14:22:29.930Z,12.40
2023-02-22T14:25:36.465Z,12.32
2023-02-22T14:28:41.938Z,11.38
2023-02-22T14:31:44.685Z,13.15
2023-02-22T14:34:55.174Z,12.85
2023-02-22T14:38:00.458Z,10.53
2023-02-22T14:41:03.678Z,12.57
2023-02-22T14:44:07.898Z,15.30
2023-02-22T14:47:22.094Z,12.55
2023-02-22T14:50:30.661Z,15.75
2023-02-22T14:53:36.790Z,14.67
2023-02-22T14:56:44.520Z,22.58
2023-02-22T15:00:09.145Z,17.95
2023-02-22T15:03:37.489Z,12.30
2023-02-22T15:06:40.299Z,13.15
2023-02-22T15:09:46.701Z,10.87
2023-02-22T15:13:14.846Z,12.77
2023-02-22T15:16:18.287Z,20.23
2023-02-22T15:19:25.656Z,15.82
2023-02-22T15:22:35.833Z,11.25
2023-02-22T15:25:39.564Z,12.80
2023-02-22T15:28:42.992Z,11.77
2023-02-22T15:31:48.222Z,14.45
2023-02-22T15:34:51.950Z,12.52
2023-02-22T15:38:09.312Z,13.32
2023-02-22T15:41:27.947Z,16.23
2023-02-22T15:44:40.315Z,12.48
2023-02-22T15:47:42.994Z,14.13
2023-02-22T15:51:07.005Z,13.68
2023-02-22T15:54:18.322Z,9.82
2023-02-22T15:57:29.904Z,10.87
2023-02-22T16:00:36.902Z,20.02
2023-02-22T16:03:49.172Z,40.35
2023-02-22T16:07:02.602Z,15.77
2023-02-22T16:10:09.390Z,13.85
2023-02-22T16:13:32.043Z,19.43
2023-02-22T16:16:44.313Z,15.63
2023-02-22T16:19:51.247Z,14.75
2023-02-22T16:22:58.834Z,12.70
2023-02-22T16:26:20.472Z,18.27
2023-02-22T16:29:27.118Z,13.57
2023-02-22T16:32:30.541Z,18.88
2023-02-22T16:35:35.639Z,12.68
2023-02-22T16:38:39.250Z,17.17
2023-02-22T16:41:42.902Z,15.75
2023-02-22T16:44:46.296Z,10.80
2023-02-22T16:47:54.003Z,14.30
2023-02-22T16:51:01.475Z,13.48
2023-02-22T16:54:04.967Z,13.98
2023-02-22T16:57:08.540Z,13.93
2023-02-22T17:00:31.531Z,11.37
2023-02-22T17:03:35.291Z,13.32
2023-02-22T17:06:38.112Z,10.45
2023-02-22T17:09:41.391Z,11.80
2023-02-22T17:12:50.170Z,13.73
2023-02-22T17:15:55.596Z,13.93
2023-02-22T17:18:59.632Z,10.52
2023-02-22T17:22:06.555Z,12.35
2023-02-22T17:25:21.013Z,11.95
2023-02-22T17:28:25.437Z,13.65
2023-02-22T17:31:30.734Z,10.30
2023-02-22T17:34:33.875Z,11.90
2023-02-22T17:37:38.501Z,12.77
2023-02-22T17:40:42.066Z,15.93
2023-02-22T17:43:45.756Z,13.25
2023-02-22T17:46:49.755Z,14.17
2023-02-22T17:49:53.303Z,16.42
2023-02-22T17:52:56.266Z,14.48
2023-02-22T17:56:06.733Z,13.23
2023-02-22T17:59:11.154Z,13.40
2023-02-22T18:02:15.408Z,12.90
2023-02-22T18:05:19.701Z,13.30
2023-02-22T18:08:25.164Z,14.38
2023-02-22T18:11:33.129Z,14.93
2023-02-22T18:14:39.230Z,12.60
2023-02-22T18:17:42.871Z,15.70
2023-02-22T18:20:51.850Z,14.77
2023-02-22T18:23:58.131Z,12.80
2023-02-22T18:27:06.460Z,13.85
2023-02-22T18:30:12.662Z,12.55
2023-02-22T18:33:20.938Z,14.50
2023-02-22T18:36:25.453Z,14.77
2023-02-22T18:39:32.495Z,17.33
2023-02-22T18:42:38.830Z,20.58
2023-02-22T18:45:51.548Z,16.77
2023-02-22T18:48:57.537Z,19.53
2023-02-22T18:52:01.843Z,16.10
2023-02-22T18:55:09.326Z,19.25
2023-02-22T18:58:13.114Z,17.38
2023-02-22T19:01:19.436Z,18.50
2023-02-22T19:04:26.976Z,19.07
2023-02-22T19:07:30.561Z,18.30
2023-02-22T19:10:48.162Z,18.40
2023-02-22T19:13:58.951Z,20.25
2023-02-22T19:17:03.761Z,18.30
2023-02-22T19:20:10.740Z,19.63
2023-02-22T19:23:15.496Z,23.95
2023-02-22T19:26:27.785Z,27.63
2023-02-22T19:29:36.633Z,23.58
2023-02-22T19:32:46.285Z,22.00
2023-02-22T19:35:51.341Z,22.60
2023-02-22T19:39:04.020Z,22.63
2023-02-22T19:42:10.856Z,24.20
2023-02-22T19:45:15.734Z,24.73
2023-02-22T19:48:22.472Z,26.08
2023-02-22T19:51:29.830Z,27.83
2023-02-22T19:54:36.234Z,27.42
2023-02-22T19:57:47.979Z,23.95
2023-02-22T20:00:52.211Z,26.23
2023-02-22T20:04:00.474Z,26.30
2023-02-22T20:07:05.033Z,26.97
2023-02-22T20:10:10.120Z,24.65
2023-02-22T20:13:15.075Z,25.88
2023-02-22T20:16:20.230Z,29.08
2023-02-22T20:19:27.259Z,26.52
2023-02-22T20:22:32.085Z,27.77
2023-02-22T20:25:36.291Z,25.30
2023-02-22T20:28:41.855Z,27.30
2023-02-22T20:31:54.153Z,28.40
2023-02-22T20:34:59.534Z,28.08
2023-02-22T20:38:06.417Z,26.93
2023-02-22T20:41:16.058Z,29.90
2023-02-22T20:44:20.710Z,31.40
2023-02-22T20:47:25.273Z,31.42
2023-02-22T20:50:30.063Z,31.30
2023-02-22T20:53:36.088Z,30.40
2023-02-22T20:56:43.299Z,30.27
2023-02-22T20:59:48.253Z,29.77
2023-02-22T21:02:52.799Z,29.48
2023-02-22T21:05:57.848Z,29.63
2023-02-22T21:09:09.611Z,33.83
2023-02-22T21:12:15.744Z,35.72
2023-02-22T21:15:19.745Z,30.10
2023-02-22T21:18:25.131Z,32.85
2023-02-22T21:21:32.482Z,31.58
2023-02-22T21:24:37.111Z,31.20
2023-02-22T21:27:44.473Z,30.85
2023-02-22T21:30:48.580Z,27.55
2023-02-22T21:33:55.914Z,30.48
2023-02-22T21:37:00.578Z,37.75
2023-02-22T21:40:12.136Z,32.00
2023-02-22T21:43:17.285Z,35.17
2023-02-22T21:46:21.348Z,36.38
2023-02-22T21:49:25.563Z,35.05
2023-02-22T21:52:29.385Z,38.40
2023-02-22T21:55:34.109Z,33.73
2023-02-22T21:58:37.101Z,37.00
2023-02-22T22:01:47.512Z,33.47
2023-02-22T22:04:50.788Z,31.27
2023-02-22T22:07:53.359Z,34.55
2023-02-22T22:10:56.628Z,31.37
2023-02-22T22:14:00.466Z,31.90
2023-02-22T22:17:05.767Z,34.40
2023-02-22T22:20:11.228Z,35.83
2023-02-22T22:23:14.075Z,32.08
2023-02-22T22:26:20.188Z,31.03
2023-02-22T22:29:25.034Z,33.17
2023-02-22T22:32:30.858Z,33.72
2023-02-22T22:35:33.723Z,33.90
2023-02-22T22:38:39.979Z,31.83
2023-02-22T22:41:46.876Z,29.70
2023-02-22T22:44:50.509Z,31.90
2023-02-22T22:47:53.312Z,30.23
2023-02-22T22:51:02.548Z,31.83
2023-02-22T22:54:09.545Z,28.75
2023-02-22T22:57:12.400Z,30.80
2023-02-22T23:00:36.140Z,33.25
2023-02-22T23:03:39.111Z,31.60
2023-02-22T23:06:46.286Z,33.22
2023-02-22T23:09:49.031Z,30.77
2023-02-22T23:12:52.286Z,28.10
2023-02-22T23:15:54.901Z,32.50
2023-02-22T23:18:58.724Z,30.20
2023-02-22T23:22:01.757Z,29.50
2023-02-22T23:25:06.451Z,29.23
2023-02-22T23:28:14.822Z,32.23
2023-02-22T23:31:18.226Z,35.28
2023-02-22T23:34:23.266Z,33.22
2023-02-22T23:37:26.084Z,33.10
2023-02-22T23:40:29.258Z,34.50
2023-02-22T23:43:32.825Z,32.97
2023-02-22T23:46:36.703Z,32.35
2023-02-22T23:49:43.471Z,31.60
2023-02-22T23:52:46.369Z,35.42
2023-02-22T23:55:49.226Z,32.13
2023-02-22T23:58:52.448Z,36.03
